Time;durP1;ratioP1;P1;durP2;ratioP2;P2;SDS_P1;SDS_P2;PMS_P1;PMS_P2;Temp;Humidity;BMP_temperature;BMP_pressure;BME280_temperature;BME280_humidity;BME280_pressure;Samples;Min_cycle;Max_cycle;Signal;HPM_P1;HPM_P2
2020/12/04 00:01:44;;;;;;;0.82;0.82;;;-0.60;99.90;;;;;;5111186;28;20187;-69
2020/12/04 00:04:10;;;;;;;0.60;0.60;;;-0.60;99.90;;;;;;5111209;28;20311;-70
2020/12/04 00:06:36;;;;;;;0.40;0.40;;;-0.70;99.90;;;;;;5109921;28;20168;-70
2020/12/04 00:09:03;;;;;;;2.72;1.50;;;-0.70;99.90;;;;;;5111153;28;20159;-70
2020/12/04 00:11:34;;;;;;;1.27;1.27;;;-0.70;99.90;;;;;;5111139;28;20159;-70
2020/12/04 00:14:00;;;;;;;0.55;0.55;;;-0.70;99.90;;;;;;5109464;28;20159;-70
2020/12/04 00:16:26;;;;;;;0.68;0.68;;;-0.70;99.90;;;;;;5090525;28;20176;-70
2020/12/04 00:18:52;;;;;;;0.25;0.25;;;-0.60;99.90;;;;;;5089268;28;20179;-70
2020/12/04 00:21:18;;;;;;;0.30;0.30;;;-0.60;99.90;;;;;;5089437;28;20208;-70
2020/12/04 00:23:43;;;;;;;1.02;1.02;;;-0.50;99.90;;;;;;5090520;28;20165;-70
2020/12/04 00:26:09;;;;;;;0.85;0.85;;;-0.40;99.90;;;;;;5089230;28;20338;-71
2020/12/04 00:28:35;;;;;;;0.47;0.47;;;-0.40;99.90;;;;;;5090432;28;20152;-68
2020/12/04 00:31:01;;;;;;;0.20;0.20;;;-0.40;99.90;;;;;;5100198;28;20219;-69
2020/12/04 00:33:26;;;;;;;0.43;0.43;;;-0.40;99.90;;;;;;5110590;28;20187;-68
2020/12/04 00:35:52;;;;;;;0.80;0.75;;;-0.40;99.90;;;;;;5110520;28;20210;-69
2020/12/04 00:38:18;;;;;;;1.00;1.00;;;-0.40;99.90;;;;;;5109140;28;20188;-69
2020/12/04 00:40:44;;;;;;;0.65;0.65;;;-0.30;99.90;;;;;;5094571;28;20233;-70
2020/12/04 00:43:10;;;;;;;0.77;0.77;;;-0.30;99.90;;;;;;5090235;28;20172;-69
2020/12/04 00:45:35;;;;;;;0.15;0.15;;;-0.30;99.90;;;;;;5102939;28;20210;-69
2020/12/04 00:48:01;;;;;;;0.80;0.80;;;-0.30;99.90;;;;;;5110314;28;20181;-69
2020/12/04 00:50:28;;;;;;;1.00;1.00;;;-0.20;99.90;;;;;;5110309;28;20159;-69
2020/12/04 00:52:54;;;;;;;0.88;0.88;;;-0.40;99.90;;;;;;5110299;28;20156;-69
2020/12/04 00:55:20;;;;;;;0.30;0.30;;;-0.40;99.90;;;;;;5110214;28;20259;-69
2020/12/04 00:57:46;;;;;;;0.25;0.25;;;-0.40;99.90;;;;;;5108972;28;20174;-71
2020/12/04 01:00:12;;;;;;;0.63;0.63;;;-0.30;99.90;;;;;;5104270;28;20194;-71
2020/12/04 01:02:38;;;;;;;2.03;1.92;;;-0.20;99.90;;;;;;5107343;28;20271;-69
2020/12/04 01:05:05;;;;;;;0.52;0.52;;;-0.30;99.90;;;;;;5105985;28;20248;-71
2020/12/04 01:07:31;;;;;;;3.78;3.50;;;-0.20;99.90;;;;;;5109969;28;20261;-69
2020/12/04 01:09:56;;;;;;;1.52;1.52;;;-0.30;99.90;;;;;;5108023;28;20239;-69
2020/12/04 01:12:22;;;;;;;0.43;0.43;;;-0.20;99.90;;;;;;5109818;28;20163;-69
2020/12/04 01:14:48;;;;;;;0.80;0.80;;;-0.20;99.90;;;;;;5109793;28;20244;-71
2020/12/04 01:17:16;;;;;;;1.55;1.52;;;-0.30;99.90;;;;;;5108410;28;20173;-69
2020/12/04 01:19:41;;;;;;;0.20;0.20;;;-0.20;99.90;;;;;;5109803;28;20618;-70
2020/12/04 01:22:08;;;;;;;2.65;2.47;;;-0.20;99.90;;;;;;5102970;28;20190;-71
2020/12/04 01:24:34;;;;;;;0.65;0.65;;;-0.30;99.90;;;;;;5108222;28;20195;-68
2020/12/04 01:27:00;;;;;;;1.02;0.95;;;-0.30;99.90;;;;;;5108281;28;20227;-70
2020/12/04 01:29:26;;;;;;;0.75;0.75;;;-0.30;99.90;;;;;;5105377;28;20295;-69
2020/12/04 01:31:51;;;;;;;0.93;0.70;;;-0.30;99.90;;;;;;5087867;28;20176;-69
2020/12/04 01:34:17;;;;;;;0.52;0.52;;;-0.30;99.90;;;;;;5089096;28;20190;-69
2020/12/04 01:36:43;;;;;;;0.43;0.43;;;-0.20;99.90;;;;;;5108140;28;20175;-71
2020/12/04 01:39:09;;;;;;;0.32;0.32;;;-0.40;99.90;;;;;;5107828;28;20223;-70
2020/12/04 01:41:36;;;;;;;0.40;0.40;;;-0.40;99.90;;;;;;5109382;28;20218;-70
2020/12/04 01:44:03;;;;;;;0.20;0.20;;;-0.40;99.90;;;;;;5109294;28;20223;-70
2020/12/04 01:46:29;;;;;;;0.38;0.38;;;-0.40;99.90;;;;;;5109376;28;20151;-70
2020/12/04 01:48:55;;;;;;;0.25;0.25;;;-0.50;99.90;;;;;;5108092;28;20174;-70
2020/12/04 01:51:22;;;;;;;0.73;0.73;;;-0.50;99.90;;;;;;5107907;28;20167;-71
2020/12/04 01:53:51;;;;;;;1.92;1.85;;;-0.50;99.90;;;;;;5107965;28;20171;-70
2020/12/04 01:56:17;;;;;;;0.43;0.43;;;-0.40;99.90;;;;;;5088576;28;20195;-70
2020/12/04 01:58:43;;;;;;;0.40;0.40;;;-0.40;99.90;;;;;;5088911;28;20178;-70
2020/12/04 02:01:12;;;;;;;1.33;1.33;;;-0.40;99.90;;;;;;5087182;28;20222;-70
2020/12/04 02:03:39;;;;;;;0.63;0.63;;;-0.40;99.90;;;;;;5087496;28;20236;-70
2020/12/04 02:06:08;;;;;;;1.33;1.33;;;-0.30;99.90;;;;;;5087554;28;20175;-70
2020/12/04 02:08:47;;;;;;;1.80;1.77;;;-0.30;99.90;;;;;;5087507;28;20176;-70
2020/12/04 02:11:20;;;;;;;0.40;0.40;;;-0.20;99.90;;;;;;5088723;28;20584;-70
2020/12/04 02:13:48;;;;;;;0.55;0.55;;;-0.20;99.90;;;;;;5088872;28;20175;-70
2020/12/04 02:16:22;;;;;;;0.95;0.95;;;-0.20;99.90;;;;;;5088705;28;20182;-69
2020/12/04 02:18:49;;;;;;;4.15;3.45;;;-0.10;99.90;;;;;;5087572;28;20176;-70
2020/12/04 02:21:16;;;;;;;0.20;0.20;;;-0.20;99.90;;;;;;5088669;28;20200;-69
2020/12/04 02:23:50;;;;;;;0.80;0.80;;;-0.30;99.90;;;;;;5092841;28;20160;-70
2020/12/04 02:26:22;;;;;;;0.98;0.98;;;-0.30;99.90;;;;;;5109919;28;20267;-70
2020/12/04 02:28:49;;;;;;;2.45;0.88;;;-0.30;99.90;;;;;;5113223;28;20155;-70
2020/12/04 02:31:15;;;;;;;0.35;0.35;;;-0.30;99.90;;;;;;5111676;28;20171;-69
2020/12/04 02:33:42;;;;;;;0.70;0.70;;;-0.30;99.90;;;;;;5113008;28;20159;-70
2020/12/04 02:36:10;;;;;;;0.80;0.80;;;-0.30;99.90;;;;;;5112941;28;20300;-70
2020/12/04 02:38:36;;;;;;;0.20;0.20;;;-0.30;99.90;;;;;;5112745;28;20163;-70
2020/12/04 02:41:04;;;;;;;1.50;1.40;;;-0.30;99.90;;;;;;5112801;28;20227;-69
2020/12/04 02:43:30;;;;;;;1.70;1.67;;;-0.30;99.90;;;;;;5111482;28;20171;-70
2020/12/04 02:45:56;;;;;;;0.20;0.20;;;-0.40;99.90;;;;;;5097159;28;20221;-69
2020/12/04 02:48:22;;;;;;;0.45;0.45;;;-0.30;99.90;;;;;;5092395;28;20148;-69
2020/12/04 02:50:48;;;;;;;0.73;0.73;;;-0.30;99.90;;;;;;5092143;28;20219;-69
2020/12/04 02:53:13;;;;;;;0.98;0.98;;;-0.30;99.90;;;;;;5090948;28;20187;-69
2020/12/04 02:55:39;;;;;;;3.83;2.75;;;-0.30;99.90;;;;;;5092265;28;20176;-70
2020/12/04 02:58:05;;;;;;;0.20;0.20;;;-0.20;99.90;;;;;;5092194;28;20161;-69
2020/12/04 03:00:31;;;;;;;3.00;2.65;;;-0.20;99.90;;;;;;5090692;28;20192;-69
2020/12/04 03:02:57;;;;;;;0.30;0.30;;;-0.20;99.90;;;;;;5091974;28;20202;-69
2020/12/04 03:05:23;;;;;;;0.80;0.75;;;-0.20;99.90;;;;;;5090791;28;20207;-69
2020/12/04 03:07:48;;;;;;;0.35;0.35;;;-0.20;99.90;;;;;;5092095;28;20157;-69
2020/12/04 03:10:14;;;;;;;0.28;0.28;;;-0.20;99.90;;;;;;5091827;28;20188;-70
2020/12/04 03:12:41;;;;;;;0.40;0.40;;;-0.30;99.90;;;;;;5091909;28;20168;-70
2020/12/04 03:15:08;;;;;;;1.17;1.17;;;-0.30;99.90;;;;;;5091885;28;20160;-70
2020/12/04 03:17:34;;;;;;;0.52;0.52;;;-0.30;99.90;;;;;;5091775;28;20156;-69
2020/12/04 03:20:00;;;;;;;2.08;1.98;;;-0.40;99.90;;;;;;5090430;28;20204;-69
2020/12/04 03:22:27;;;;;;;1.42;1.38;;;-0.30;99.90;;;;;;5090379;28;20210;-69
2020/12/04 03:24:53;;;;;;;0.30;0.30;;;-0.30;99.90;;;;;;5090332;28;20171;-70
2020/12/04 03:27:20;;;;;;;0.88;0.88;;;-0.20;99.90;;;;;;5090382;28;20176;-69
2020/12/04 03:29:47;;;;;;;1.50;1.40;;;-0.20;99.90;;;;;;5090321;28;20191;-69
2020/12/04 03:32:14;;;;;;;0.30;0.30;;;-0.20;99.90;;;;;;5089870;28;20176;-69
2020/12/04 03:34:40;;;;;;;0.98;0.98;;;-0.20;99.90;;;;;;5091316;28;20160;-70
2020/12/04 03:37:06;;;;;;;1.25;1.25;;;-0.20;99.90;;;;;;5090120;28;20200;-69
2020/12/04 03:39:32;;;;;;;0.43;0.43;;;-0.20;99.90;;;;;;5093228;28;20215;-69
2020/12/04 03:41:58;;;;;;;0.20;0.20;;;-0.10;99.90;;;;;;5111465;28;20195;-69
2020/12/04 03:44:24;;;;;;;0.38;0.38;;;-0.20;99.90;;;;;;5109311;28;20643;-69
2020/12/04 03:46:50;;;;;;;0.68;0.68;;;-0.20;99.90;;;;;;5091264;28;20164;-70
2020/12/04 03:49:16;;;;;;;0.68;0.68;;;-0.20;99.90;;;;;;5091015;28;20156;-69
2020/12/04 03:51:43;;;;;;;1.10;1.10;;;-0.20;99.90;;;;;;5091240;28;20226;-69
2020/12/04 03:54:11;;;;;;;0.40;0.40;;;-0.30;99.90;;;;;;5089582;28;20164;-69
2020/12/04 03:56:37;;;;;;;0.65;0.65;;;-0.30;99.90;;;;;;5089489;28;20172;-70
2020/12/04 03:59:03;;;;;;;3.85;3.53;;;-0.30;99.90;;;;;;5090625;28;20186;-69
2020/12/04 04:01:30;;;;;;;0.63;0.63;;;-0.30;99.90;;;;;;5094897;28;20203;-69
2020/12/04 04:03:56;;;;;;;0.28;0.28;;;-0.30;99.90;;;;;;5109953;28;20175;-69
2020/12/04 04:06:21;;;;;;;0.50;0.50;;;-0.30;99.90;;;;;;5111172;28;20187;-69
2020/12/04 04:08:47;;;;;;;0.60;0.60;;;-0.30;99.90;;;;;;5111038;28;20215;-69
2020/12/04 04:11:13;;;;;;;0.22;0.22;;;-0.30;99.90;;;;;;5110959;28;20164;-70
2020/12/04 04:13:39;;;;;;;2.33;2.17;;;-0.30;99.90;;;;;;5111037;28;20164;-69
2020/12/04 04:16:07;;;;;;;0.15;0.15;;;-0.30;99.90;;;;;;5110880;28;20214;-69
2020/12/04 04:18:34;;;;;;;0.40;0.40;;;-0.30;99.90;;;;;;5109514;28;20530;-70
2020/12/04 04:21:01;;;;;;;0.80;0.80;;;-0.30;99.90;;;;;;5109474;28;20186;-69
2020/12/04 04:23:27;;;;;;;0.85;0.85;;;-0.30;99.90;;;;;;5110893;28;20175;-69
2020/12/04 04:25:53;;;;;;;1.10;1.10;;;-0.30;99.90;;;;;;5110834;28;20183;-69
2020/12/04 04:28:19;;;;;;;0.88;0.88;;;-0.40;99.90;;;;;;5110689;28;20144;-69
2020/12/04 04:30:45;;;;;;;2.22;1.70;;;-0.30;99.90;;;;;;5110823;28;20289;-69
2020/12/04 04:33:11;;;;;;;2.88;2.63;;;-0.30;99.90;;;;;;5110757;28;20214;-69
2020/12/04 04:35:38;;;;;;;0.35;0.35;;;-0.30;99.90;;;;;;5110557;28;20253;-70
2020/12/04 04:38:04;;;;;;;0.17;0.17;;;-0.40;99.90;;;;;;5110671;28;20156;-69
2020/12/04 04:40:30;;;;;;;0.65;0.65;;;-0.30;99.90;;;;;;5110256;28;20254;-70
2020/12/04 04:43:13;;;;;;;1.38;1.38;;;-0.30;99.90;;;;;;5109179;28;20198;-70
2020/12/04 04:45:40;;;;;;;0.35;0.35;;;-0.30;99.90;;;;;;5109718;28;20187;-69
2020/12/04 04:48:24;;;;;;;1.25;1.25;;;-0.30;99.90;;;;;;5108795;28;20168;-69
2020/12/04 04:50:53;;;;;;;0.40;0.40;;;-0.30;99.90;;;;;;5110444;28;20177;-70
2020/12/04 04:53:21;;;;;;;0.17;0.17;;;-0.20;99.90;;;;;;5110110;28;20151;-70
2020/12/04 04:55:47;;;;;;;0.98;0.98;;;-0.20;99.90;;;;;;5110092;28;20202;-70
2020/12/04 04:58:13;;;;;;;0.30;0.30;;;-0.20;99.90;;;;;;5108838;28;20174;-70
2020/12/04 05:00:39;;;;;;;1.55;1.48;;;-0.10;99.90;;;;;;5109956;28;20580;-70
2020/12/04 05:03:09;;;;;;;2.88;1.50;;;-0.30;99.90;;;;;;5109927;28;20218;-69
2020/12/04 05:05:45;;;;;;;1.75;1.65;;;-0.30;99.90;;;;;;5108741;28;20191;-70
2020/12/04 05:08:19;;;;;;;1.17;1.17;;;-0.30;99.90;;;;;;5109884;28;20177;-70
2020/12/04 05:10:47;;;;;;;2.38;2.28;;;-0.30;99.90;;;;;;5109723;28;20158;-69
2020/12/04 05:13:17;;;;;;;0.90;0.90;;;-0.20;99.90;;;;;;5108366;28;20242;-70
2020/12/04 05:15:43;;;;;;;2.35;2.15;;;-0.10;99.90;;;;;;5108493;28;20235;-69
2020/12/04 05:18:12;;;;;;;1.70;1.52;;;-0.10;99.90;;;;;;5109688;28;20289;-69
2020/12/04 05:20:44;;;;;;;0.75;0.75;;;-0.10;99.90;;;;;;5108246;28;20167;-70
2020/12/04 05:23:10;;;;;;;1.85;1.73;;;-0.10;99.90;;;;;;5109447;28;20195;-69
2020/12/04 05:25:38;;;;;;;0.77;0.77;;;0.00;99.90;;;;;;5109515;28;20190;-70
2020/12/04 05:28:08;;;;;;;1.23;1.23;;;0.00;99.90;;;;;;5109456;28;20163;-69
2020/12/04 05:30:34;;;;;;;1.77;1.77;;;-0.10;99.90;;;;;;5109435;28;20166;-69
2020/12/04 05:33:01;;;;;;;0.45;0.45;;;-0.10;99.90;;;;;;5108091;28;20249;-69
2020/12/04 05:35:28;;;;;;;0.75;0.75;;;-0.10;99.90;;;;;;5109231;28;20195;-70
2020/12/04 05:38:16;;;;;;;0.15;0.15;;;-0.20;99.90;;;;;;5109232;28;20178;-69
2020/12/04 05:40:50;;;;;;;1.55;1.45;;;-0.10;99.90;;;;;;5094546;28;20289;-70
2020/12/04 05:43:30;;;;;;;1.67;1.58;;;-0.10;99.90;;;;;;5087171;28;20221;-69
2020/12/04 05:46:19;;;;;;;1.35;1.35;;;-0.10;99.90;;;;;;5087565;28;20247;-70
2020/12/04 05:49:08;;;;;;;0.63;0.63;;;-0.10;99.90;;;;;;5088526;28;20160;-70
2020/12/04 05:51:37;;;;;;;2.28;1.60;;;-0.30;99.90;;;;;;5087362;28;20199;-69
2020/12/04 05:54:10;;;;;;;1.17;1.17;;;-0.30;99.90;;;;;;5086917;28;20195;-69
2020/12/04 05:56:36;;;;;;;1.95;1.88;;;-0.40;99.90;;;;;;5087086;28;20164;-71
2020/12/04 05:59:07;;;;;;;0.82;0.82;;;-0.30;99.90;;;;;;5088870;28;20157;-69
2020/12/04 06:01:33;;;;;;;0.70;0.70;;;-0.30;99.90;;;;;;5088440;28;20199;-69
2020/12/04 06:03:59;;;;;;;1.52;1.42;;;-0.30;99.90;;;;;;5087145;28;20171;-69
2020/12/04 06:06:32;;;;;;;0.57;0.57;;;-0.30;99.90;;;;;;5088619;28;20156;-69
2020/12/04 06:09:08;;;;;;;1.05;1.05;;;-0.30;99.90;;;;;;5088387;28;20153;-69
2020/12/04 06:11:46;;;;;;;1.92;1.85;;;-0.30;99.90;;;;;;5088507;28;20250;-69
2020/12/04 06:14:25;;;;;;;1.58;1.48;;;-0.30;99.90;;;;;;5088397;28;20152;-69
2020/12/04 06:17:00;;;;;;;1.23;1.23;;;-0.30;99.90;;;;;;5087316;28;20182;-69
2020/12/04 06:19:35;;;;;;;0.28;0.28;;;-0.20;99.90;;;;;;5088390;28;20163;-69
2020/12/04 06:22:18;;;;;;;1.33;0.85;;;-0.10;99.90;;;;;;5088444;28;20705;-69
2020/12/04 06:24:56;;;;;;;1.05;1.05;;;-0.20;99.90;;;;;;5087177;28;20195;-70
2020/12/04 06:27:41;;;;;;;1.30;1.23;;;-0.10;99.90;;;;;;5087133;28;20176;-69
2020/12/04 06:30:09;;;;;;;0.65;0.65;;;-0.10;99.90;;;;;;5088237;28;20180;-70
2020/12/04 06:32:53;;;;;;;0.88;0.88;;;-0.20;99.90;;;;;;5088184;28;20180;-70
2020/12/04 06:35:41;;;;;;;1.48;1.40;;;-0.20;99.90;;;;;;5088464;28;20228;-70
2020/12/04 06:38:34;;;;;;;0.75;0.75;;;-0.20;99.90;;;;;;5088241;28;20246;-69
2020/12/04 06:41:22;;;;;;;1.75;1.65;;;-0.20;99.90;;;;;;5086806;28;20272;-69
2020/12/04 06:43:50;;;;;;;0.95;0.95;;;-0.20;99.90;;;;;;5088136;28;20164;-70
2020/12/04 06:46:42;;;;;;;1.45;1.45;;;-0.20;99.90;;;;;;5087596;28;20207;-70
2020/12/04 06:49:22;;;;;;;1.27;1.23;;;-0.20;99.90;;;;;;5088276;28;20163;-69
2020/12/04 06:51:57;;;;;;;2.75;2.55;;;-0.10;99.90;;;;;;5086201;28;20179;-70
2020/12/04 06:54:25;;;;;;;1.85;1.77;;;-0.20;99.90;;;;;;5088225;28;20160;-71
2020/12/04 06:56:51;;;;;;;1.60;1.58;;;-0.20;99.90;;;;;;5087602;28;20152;-69
2020/12/04 06:59:24;;;;;;;0.73;0.73;;;-0.20;99.90;;;;;;5086624;28;20183;-69
2020/12/04 07:01:57;;;;;;;3.88;3.58;;;-0.20;99.90;;;;;;5088219;28;20215;-69
2020/12/04 07:04:23;;;;;;;0.63;0.63;;;-0.20;99.90;;;;;;5086995;28;20175;-69
2020/12/04 07:06:49;;;;;;;0.10;0.10;;;-0.10;99.90;;;;;;5107961;28;20225;-69
2020/12/04 07:09:15;;;;;;;0.55;0.55;;;-0.10;99.90;;;;;;5110291;28;20175;-70
2020/12/04 07:11:41;;;;;;;0.82;0.82;;;-0.10;99.90;;;;;;5091577;28;20534;-69
2020/12/04 07:14:07;;;;;;;3.42;2.78;;;-0.10;99.90;;;;;;5091700;28;20210;-70
2020/12/04 07:16:40;;;;;;;2.40;2.20;;;0.00;99.90;;;;;;5091761;28;20156;-71
2020/12/04 07:19:06;;;;;;;0.85;0.85;;;0.00;99.90;;;;;;5091791;28;20190;-71
2020/12/04 07:21:32;;;;;;;3.15;2.88;;;0.00;99.90;;;;;;5090674;28;20564;-71
2020/12/04 07:23:59;;;;;;;0.73;0.73;;;-0.10;99.90;;;;;;5091825;28;20160;-70
2020/12/04 07:26:25;;;;;;;0.63;0.63;;;0.00;99.90;;;;;;5091611;28;20275;-70
2020/12/04 07:28:51;;;;;;;2.00;1.98;;;0.10;99.90;;;;;;5090135;28;20176;-70
2020/12/04 07:31:22;;;;;;;1.33;1.33;;;0.00;99.90;;;;;;5091488;28;20247;-71
2020/12/04 07:33:58;;;;;;;1.33;1.33;;;0.00;99.90;;;;;;5091338;28;20160;-71
2020/12/04 07:36:26;;;;;;;0.35;0.35;;;0.00;99.90;;;;;;5091576;28;20162;-72
2020/12/04 07:39:00;;;;;;;0.20;0.20;;;0.00;99.90;;;;;;5091199;28;20211;-71
2020/12/04 07:41:36;;;;;;;2.03;1.92;;;-0.10;99.90;;;;;;5090983;28;20210;-71
2020/12/04 07:44:10;;;;;;;0.80;0.80;;;-0.10;99.90;;;;;;5090123;28;20167;-70
2020/12/04 07:46:37;;;;;;;1.05;1.05;;;0.00;99.90;;;;;;5091436;28;20218;-71
2020/12/04 07:49:16;;;;;;;1.38;1.27;;;0.00;99.90;;;;;;5089814;28;20171;-71
2020/12/04 07:51:42;;;;;;;0.95;0.95;;;0.10;99.90;;;;;;5091119;28;20168;-71
2020/12/04 07:54:23;;;;;;;0.28;0.28;;;0.10;99.90;;;;;;5091303;28;20148;-71
2020/12/04 07:56:54;;;;;;;2.10;2.03;;;0.10;99.90;;;;;;5090901;28;20159;-71
2020/12/04 07:59:29;;;;;;;2.35;2.25;;;0.20;99.90;;;;;;5090407;28;20267;-70
2020/12/04 08:01:56;;;;;;;0.73;0.73;;;0.20;99.90;;;;;;5090348;28;20191;-70
2020/12/04 08:04:22;;;;;;;1.65;1.55;;;0.20;99.90;;;;;;5089091;28;20168;-72
2020/12/04 08:06:49;;;;;;;2.40;2.30;;;0.30;99.90;;;;;;5091008;28;20224;-70
2020/12/04 08:09:19;;;;;;;2.97;2.85;;;0.20;99.90;;;;;;5089292;28;20168;-70
2020/12/04 08:11:50;;;;;;;1.42;1.38;;;0.30;99.90;;;;;;5089846;28;20212;-71
2020/12/04 08:14:23;;;;;;;1.75;1.65;;;0.40;99.90;;;;;;5090362;28;20167;-70
2020/12/04 08:16:53;;;;;;;1.00;1.00;;;0.30;99.90;;;;;;5089033;28;20172;-70
2020/12/04 08:19:22;;;;;;;1.33;1.33;;;0.30;99.90;;;;;;5101650;28;20183;-70
2020/12/04 08:22:06;;;;;;;3.42;2.97;;;0.40;99.90;;;;;;5110518;28;20183;-70
2020/12/04 08:24:38;;;;;;;0.80;0.80;;;0.40;99.90;;;;;;5110756;28;20569;-69
2020/12/04 08:27:09;;;;;;;2.15;2.05;;;0.40;99.90;;;;;;5110568;28;20151;-69
2020/12/04 08:29:38;;;;;;;1.00;1.00;;;0.30;99.90;;;;;;5110700;28;20241;-69
2020/12/04 08:32:08;;;;;;;1.88;1.80;;;0.40;99.90;;;;;;5110492;28;20160;-70
2020/12/04 08:34:35;;;;;;;1.38;1.38;;;0.50;99.90;;;;;;5108106;28;20231;-70
2020/12/04 08:37:12;;;;;;;2.42;2.33;;;0.50;99.90;;;;;;5109488;28;20239;-69
2020/12/04 08:39:46;;;;;;;0.38;0.38;;;0.60;99.90;;;;;;5084172;28;20223;-69
2020/12/04 08:42:32;;;;;;;0.73;0.73;;;0.70;99.90;;;;;;5089393;28;20184;-69
2020/12/04 08:45:01;;;;;;;1.33;1.33;;;0.80;99.90;;;;;;5090086;28;20152;-71
2020/12/04 08:47:31;;;;;;;0.30;0.30;;;0.80;99.90;;;;;;5090018;28;20160;-70
2020/12/04 08:50:03;;;;;;;1.60;1.52;;;0.80;99.90;;;;;;5094431;28;20203;-69
2020/12/04 08:52:37;;;;;;;1.80;1.70;;;0.90;99.90;;;;;;5108279;28;20170;-70
2020/12/04 08:55:08;;;;;;;0.65;0.65;;;0.90;99.90;;;;;;5110027;28;20163;-70
2020/12/04 08:57:34;;;;;;;1.70;1.65;;;1.10;99.90;;;;;;5110357;28;20148;-71
2020/12/04 09:00:00;;;;;;;2.88;2.30;;;1.10;99.90;;;;;;5108505;28;20194;-69
2020/12/04 09:02:26;;;;;;;1.13;1.13;;;1.10;99.90;;;;;;5095187;28;20199;-69
2020/12/04 09:04:52;;;;;;;1.25;1.25;;;1.20;99.90;;;;;;5108226;28;20167;-70
2020/12/04 09:07:18;;;;;;;1.38;1.27;;;1.20;99.90;;;;;;5106999;28;20195;-69
2020/12/04 09:09:44;;;;;;;1.23;1.23;;;1.30;99.90;;;;;;5104801;28;20183;-69
2020/12/04 09:12:10;;;;;;;2.65;2.42;;;1.30;99.90;;;;;;5095963;28;20308;-71
2020/12/04 09:14:36;;;;;;;0.65;0.65;;;1.30;99.90;;;;;;5097109;28;20258;-70
2020/12/04 09:17:02;;;;;;;2.28;2.17;;;1.20;99.90;;;;;;5089085;28;20160;-69
2020/12/04 09:19:28;;;;;;;3.47;3.28;;;1.10;99.90;;;;;;5087636;28;20176;-69
2020/12/04 09:21:54;;;;;;;0.95;0.95;;;1.00;99.90;;;;;;5087772;28;20204;-71
2020/12/04 09:24:20;;;;;;;2.58;2.47;;;1.00;99.90;;;;;;5097520;28;20685;-70
2020/12/04 09:26:45;;;;;;;4.57;3.03;;;0.90;99.90;;;;;;5109599;28;20175;-70
2020/12/04 09:29:11;;;;;;;1.02;0.98;;;0.90;99.90;;;;;;5109395;28;20466;-69
2020/12/04 09:31:38;;;;;;;2.53;2.42;;;0.80;99.90;;;;;;5109121;28;20171;-69
2020/12/04 09:34:04;;;;;;;1.48;1.48;;;0.90;99.90;;;;;;5106318;28;20238;-68
2020/12/04 09:36:30;;;;;;;2.15;2.00;;;0.90;99.90;;;;;;5109028;28;20221;-69
2020/12/04 09:38:56;;;;;;;2.88;2.00;;;0.70;99.90;;;;;;5108817;28;20250;-69
2020/12/04 09:41:22;;;;;;;1.23;1.23;;;0.80;99.90;;;;;;5105373;28;20215;-69
2020/12/04 09:43:47;;;;;;;1.75;1.40;;;0.90;99.90;;;;;;5108694;28;20207;-69
2020/12/04 09:46:13;;;;;;;3.45;3.17;;;1.00;99.90;;;;;;5095905;28;20258;-69
2020/12/04 09:48:39;;;;;;;1.40;1.40;;;1.10;99.90;;;;;;5107549;28;20239;-68
2020/12/04 09:51:05;;;;;;;0.60;0.60;;;1.10;99.90;;;;;;5107210;28;20182;-70
2020/12/04 09:53:31;;;;;;;0.55;0.55;;;1.20;99.90;;;;;;5109102;28;20152;-70
2020/12/04 09:55:57;;;;;;;1.55;1.55;;;1.30;99.90;;;;;;5107731;28;20187;-69
2020/12/04 09:58:23;;;;;;;2.30;2.20;;;1.30;99.90;;;;;;5108700;28;20175;-70
2020/12/04 10:00:49;;;;;;;1.65;1.58;;;1.10;99.90;;;;;;5108647;28;20186;-69
2020/12/04 10:03:15;;;;;;;3.50;3.35;;;1.10;99.90;;;;;;5108465;28;20191;-69
2020/12/04 10:05:41;;;;;;;3.92;1.98;;;1.20;99.90;;;;;;5108218;28;20710;-70
2020/12/04 10:08:07;;;;;;;2.88;2.78;;;1.20;99.90;;;;;;5108776;28;20250;-70
2020/12/04 10:10:33;;;;;;;1.52;1.52;;;1.20;99.90;;;;;;5106922;28;20193;-69
2020/12/04 10:12:58;;;;;;;2.25;2.15;;;1.30;99.90;;;;;;5106676;28;20159;-69
2020/12/04 10:15:24;;;;;;;1.50;1.50;;;1.30;99.90;;;;;;5108500;28;20190;-69
2020/12/04 10:17:50;;;;;;;1.65;0.90;;;1.40;99.90;;;;;;5108732;28;20238;-70
2020/12/04 10:20:16;;;;;;;0.25;0.25;;;1.50;99.90;;;;;;5108621;28;20159;-69
2020/12/04 10:22:42;;;;;;;0.73;0.73;;;1.50;99.90;;;;;;5108703;28;20187;-70
2020/12/04 10:25:08;;;;;;;1.40;1.40;;;1.50;99.90;;;;;;5107264;28;20195;-68
2020/12/04 10:27:34;;;;;;;0.73;0.73;;;1.60;99.90;;;;;;5106548;28;20186;-68
2020/12/04 10:30:00;;;;;;;1.88;1.83;;;1.60;99.90;;;;;;5108613;28;20503;-69
2020/12/04 10:32:26;;;;;;;0.85;0.85;;;1.60;99.90;;;;;;5108618;28;20167;-71
2020/12/04 10:34:52;;;;;;;2.45;2.35;;;1.80;99.90;;;;;;5107048;28;20296;-69
2020/12/04 10:37:18;;;;;;;1.63;1.63;;;1.80;99.90;;;;;;5107905;28;20163;-69
2020/12/04 10:39:44;;;;;;;2.38;2.28;;;1.90;99.90;;;;;;5106535;28;20227;-70
2020/12/04 10:42:10;;;;;;;2.83;2.00;;;2.00;99.90;;;;;;5108496;28;20194;-69
2020/12/04 10:44:35;;;;;;;2.53;2.33;;;2.10;99.90;;;;;;5112423;28;20179;-69
2020/12/04 10:47:02;;;;;;;1.55;1.55;;;2.20;99.90;;;;;;5112634;28;20182;-70
2020/12/04 10:49:27;;;;;;;2.63;2.53;;;2.10;99.90;;;;;;5109799;28;20171;-69
2020/12/04 10:51:57;;;;;;;0.93;0.93;;;2.10;99.90;;;;;;5101327;28;20182;-69
2020/12/04 10:54:25;;;;;;;1.73;1.65;;;2.20;99.90;;;;;;5110927;28;20159;-69
2020/12/04 10:56:55;;;;;;;3.20;2.95;;;2.10;99.90;;;;;;5103286;28;20647;-70
2020/12/04 10:59:21;;;;;;;2.88;2.72;;;2.10;99.90;;;;;;5111736;28;20202;-70
2020/12/04 11:02:28;;;;;;;0.52;0.52;;;2.10;99.90;;;;;;5112005;28;20183;-69
2020/12/04 11:07:24;;;;;;;2.45;2.35;;;2.30;99.90;;;;;;5112449;28;20720;-70
2020/12/04 11:09:50;;;;;;;2.75;2.63;;;2.20;99.90;;;;;;5112352;28;20156;-71
2020/12/04 11:12:16;;;;;;;0.90;0.85;;;2.20;99.90;;;;;;5112019;28;20185;-69
2020/12/04 11:14:43;;;;;;;1.40;1.30;;;2.00;99.90;;;;;;5111004;28;20195;-71
2020/12/04 11:17:09;;;;;;;3.33;3.05;;;2.00;99.90;;;;;;5110938;28;20167;-68
2020/12/04 11:19:36;;;;;;;1.48;1.48;;;2.00;99.90;;;;;;5112222;28;20147;-70
2020/12/04 11:22:02;;;;;;;1.75;1.67;;;2.00;99.90;;;;;;5111905;28;20201;-70
2020/12/04 11:24:29;;;;;;;1.00;1.00;;;1.90;99.90;;;;;;5109563;28;20152;-70
2020/12/04 11:26:55;;;;;;;2.40;2.30;;;1.80;99.90;;;;;;5091827;28;20157;-70
2020/12/04 11:29:20;;;;;;;1.83;1.73;;;1.90;99.90;;;;;;5092120;28;20156;-70
2020/12/04 11:31:46;;;;;;;0.57;0.57;;;1.90;99.90;;;;;;5111687;28;20167;-70
2020/12/04 11:34:12;;;;;;;1.08;1.08;;;1.90;99.90;;;;;;5110646;28;20569;-70
2020/12/04 11:36:38;;;;;;;1.88;1.77;;;1.90;99.90;;;;;;5111664;28;20198;-70
2020/12/04 11:39:04;;;;;;;1.30;1.30;;;1.80;99.90;;;;;;5109477;28;20313;-70
2020/12/04 11:41:33;;;;;;;0.20;0.20;;;1.90;99.90;;;;;;5110259;28;20675;-70
2020/12/04 11:43:59;;;;;;;2.30;2.10;;;2.00;99.90;;;;;;5110320;28;20163;-70
2020/12/04 11:46:25;;;;;;;1.05;1.05;;;2.20;99.90;;;;;;5111642;28;20181;-70
2020/12/04 11:48:51;;;;;;;1.60;1.55;;;2.20;99.90;;;;;;5111168;28;20175;-71
2020/12/04 11:51:17;;;;;;;3.05;2.85;;;2.40;99.90;;;;;;5110096;28;20285;-70
2020/12/04 11:53:42;;;;;;;1.33;1.33;;;2.30;99.90;;;;;;5111533;28;20181;-69
2020/12/04 11:56:08;;;;;;;3.60;3.40;;;2.40;99.90;;;;;;5110029;28;20171;-70
2020/12/04 11:58:34;;;;;;;2.55;2.35;;;2.50;99.90;;;;;;5109594;28;20171;-69
2020/12/04 12:01:00;;;;;;;1.30;1.30;;;2.70;99.90;;;;;;5110646;28;20191;-70
2020/12/04 12:03:26;;;;;;;0.65;0.65;;;2.70;99.90;;;;;;5110754;28;20190;-70
2020/12/04 12:05:52;;;;;;;0.75;0.75;;;2.80;99.90;;;;;;5110324;28;20155;-70
2020/12/04 12:08:19;;;;;;;2.00;1.95;;;2.70;99.90;;;;;;5110932;28;20228;-70
2020/12/04 12:10:45;;;;;;;2.53;2.33;;;2.70;99.90;;;;;;5110937;28;20186;-70
2020/12/04 12:13:11;;;;;;;1.13;1.08;;;2.60;99.90;;;;;;5107417;28;20180;-69
2020/12/04 12:15:37;;;;;;;0.75;0.75;;;2.50;99.90;;;;;;5109755;28;20547;-70
2020/12/04 12:18:03;;;;;;;1.10;0.68;;;2.50;99.90;;;;;;5109613;28;20186;-70
2020/12/04 12:20:29;;;;;;;2.13;2.03;;;2.40;99.90;;;;;;5110384;28;20198;-69
2020/12/04 12:22:55;;;;;;;1.42;1.42;;;2.60;99.90;;;;;;5108675;28;20581;-69
2020/12/04 12:25:20;;;;;;;1.75;1.75;;;2.80;99.90;;;;;;5110157;28;20167;-69
2020/12/04 12:27:46;;;;;;;1.85;1.80;;;3.00;99.90;;;;;;5109232;28;20228;-69
2020/12/04 12:30:12;;;;;;;2.88;2.67;;;2.90;99.90;;;;;;5110384;28;20267;-69
2020/12/04 12:32:38;;;;;;;5.38;2.47;;;2.60;99.90;;;;;;5110588;28;20564;-68
2020/12/04 12:35:11;;;;;;;1.35;1.30;;;2.30;99.90;;;;;;5109738;28;20163;-68
2020/12/04 12:37:38;;;;;;;0.47;0.47;;;2.10;99.90;;;;;;5110123;28;20780;-69
2020/12/04 12:40:07;;;;;;;0.40;0.40;;;2.10;99.90;;;;;;5109980;28;20244;-69
2020/12/04 12:42:33;;;;;;;0.65;0.65;;;2.00;99.90;;;;;;5110333;28;20179;-69
2020/12/04 12:44:59;;;;;;;0.73;0.73;;;2.00;99.90;;;;;;5110185;28;20156;-68
2020/12/04 12:47:26;;;;;;;1.45;1.42;;;1.70;99.90;;;;;;5110532;28;20156;-69
2020/12/04 12:49:52;;;;;;;1.30;1.30;;;1.80;99.90;;;;;;5108962;28;20663;-68
2020/12/04 12:52:17;;;;;;;0.30;0.30;;;1.70;99.90;;;;;;5109022;28;20163;-68
2020/12/04 12:54:43;;;;;;;2.17;2.08;;;1.70;99.90;;;;;;5108964;28;20167;-68
2020/12/04 12:57:10;;;;;;;0.20;0.20;;;1.70;99.90;;;;;;5110234;28;20252;-68
2020/12/04 12:59:36;;;;;;;0.17;0.17;;;1.60;99.90;;;;;;5108555;28;20195;-68